Time;durP1;ratioP1;P1;durP2;ratioP2;P2;SDS_P1;SDS_P2;PMS_P1;PMS_P2;Temp;Humidity;BMP_temperature;BMP_pressure;BME280_temperature;BME280_humidity;BME280_pressure;Samples;Min_cycle;Max_cycle;Signal;HPM_P1;HPM_P2
2021/08/23 00:01:16;;;;;;;20.42;8.65;;;;;;;;;;5092165;28;20028;-75
2021/08/23 00:03:42;;;;;;;18.75;9.50;;;;;;;;;;5071271;28;20035;-75
2021/08/23 00:06:08;;;;;;;21.63;9.35;;;;;;;;;;5092169;28;20052;-73
2021/08/23 00:08:34;;;;;;;18.42;8.57;;;;;;;;;;5073235;28;20020;-72
2021/08/23 00:11:00;;;;;;;25.55;8.52;;;;;;;;;;5073502;28;20076;-74
2021/08/23 00:13:26;;;;;;;27.50;8.13;;;;;;;;;;5089179;28;20078;-74
2021/08/23 00:15:55;;;;;;;22.95;8.57;;;;;;;;;;5092055;28;20012;-73
2021/08/23 00:18:21;;;;;;;22.13;8.23;;;;;;;;;;5091976;28;20019;-74
2021/08/23 00:20:54;;;;;;;31.42;7.18;;;;;;;;;;5091958;28;20019;-75
2021/08/23 00:23:22;;;;;;;25.00;8.30;;;;;;;;;;5070776;28;20026;-75
2021/08/23 00:25:49;;;;;;;25.42;6.90;;;;;;;;;;5091622;28;20076;-75
2021/08/23 00:28:15;;;;;;;23.27;7.72;;;;;;;;;;5073393;28;20022;-74
2021/08/23 00:30:41;;;;;;;20.45;7.78;;;;;;;;;;5091862;28;20019;-73
2021/08/23 00:33:07;;;;;;;21.80;7.80;;;;;;;;;;5088848;28;20054;-76
2021/08/23 00:35:33;;;;;;;20.38;6.85;;;;;;;;;;5091785;28;20122;-77
2021/08/23 00:38:00;;;;;;;28.02;8.27;;;;;;;;;;5111658;28;20052;-74
2021/08/23 00:40:26;;;;;;;26.35;6.90;;;;;;;;;;5112047;28;20035;-73
2021/08/23 00:42:52;;;;;;;19.15;6.57;;;;;;;;;;5109148;28;20027;-73
2021/08/23 00:45:20;;;;;;;22.73;7.20;;;;;;;;;;5111718;28;20024;-72
2021/08/23 00:47:46;;;;;;;29.55;7.47;;;;;;;;;;5093415;28;20049;-76
2021/08/23 00:50:12;;;;;;;17.65;6.25;;;;;;;;;;5111579;28;20020;-75
2021/08/23 00:52:38;;;;;;;18.15;6.25;;;;;;;;;;5109074;28;20091;-75
2021/08/23 00:55:05;;;;;;;27.73;8.10;;;;;;;;;;5097800;28;20028;-74
2021/08/23 00:57:31;;;;;;;23.38;7.40;;;;;;;;;;5091175;28;20085;-72
2021/08/23 00:59:57;;;;;;;16.98;6.00;;;;;;;;;;5090021;28;20023;-74
2021/08/23 01:02:36;;;;;;;19.23;6.00;;;;;;;;;;5089208;28;20107;-74
2021/08/23 01:05:08;;;;;;;23.65;6.78;;;;;;;;;;5091328;28;20103;-73
2021/08/23 01:07:54;;;;;;;23.13;8.05;;;;;;;;;;5090951;28;20023;-71
2021/08/23 01:10:23;;;;;;;19.27;6.35;;;;;;;;;;5090582;28;20490;-73
2021/08/23 01:12:49;;;;;;;24.05;7.00;;;;;;;;;;5086952;28;20012;-73
2021/08/23 01:15:15;;;;;;;20.13;6.65;;;;;;;;;;5091026;28;20035;-75
2021/08/23 01:17:41;;;;;;;29.48;7.40;;;;;;;;;;5090875;28;20008;-73
2021/08/23 01:20:08;;;;;;;20.35;6.47;;;;;;;;;;5088671;28;20020;-72
2021/08/23 01:22:48;;;;;;;25.05;7.22;;;;;;;;;;5088135;28;20521;-72
2021/08/23 01:25:20;;;;;;;23.08;7.47;;;;;;;;;;5090857;28;20026;-74
2021/08/23 01:27:53;;;;;;;24.27;6.85;;;;;;;;;;5089456;28;20140;-72
2021/08/23 01:30:19;;;;;;;25.88;8.15;;;;;;;;;;5091049;28;20012;-73
2021/08/23 01:32:45;;;;;;;22.95;7.07;;;;;;;;;;5088592;28;20044;-73
2021/08/23 01:35:12;;;;;;;31.60;6.78;;;;;;;;;;5088001;28;20119;-73
2021/08/23 01:37:38;;;;;;;29.05;6.90;;;;;;;;;;5110888;28;20134;-75
2021/08/23 01:40:05;;;;;;;25.98;6.88;;;;;;;;;;5111006;28;20501;-81
2021/08/23 01:42:31;;;;;;;23.52;7.10;;;;;;;;;;5108377;28;20610;-72
2021/08/23 01:44:57;;;;;;;27.83;6.82;;;;;;;;;;5111054;28;20027;-74
2021/08/23 01:47:23;;;;;;;21.10;6.35;;;;;;;;;;5110986;28;20027;-79
2021/08/23 01:49:49;;;;;;;17.70;5.70;;;;;;;;;;5110994;28;20073;-73
2021/08/23 01:52:15;;;;;;;22.27;5.38;;;;;;;;;;5109613;28;20081;-78
2021/08/23 01:54:42;;;;;;;19.13;6.05;;;;;;;;;;5087910;28;20485;-75
2021/08/23 01:57:10;;;;;;;23.35;6.97;;;;;;;;;;5090339;28;20032;-74
2021/08/23 01:59:36;;;;;;;24.30;5.90;;;;;;;;;;5090742;28;20024;-73
2021/08/23 02:02:02;;;;;;;19.95;6.35;;;;;;;;;;5072561;28;20124;-76
2021/08/23 02:04:28;;;;;;;26.48;6.88;;;;;;;;;;5087543;28;20537;-74
2021/08/23 02:06:54;;;;;;;21.23;6.88;;;;;;;;;;5090707;28;20555;-74
2021/08/23 02:09:20;;;;;;;23.40;6.72;;;;;;;;;;5090300;28;20047;-73
2021/08/23 02:11:46;;;;;;;23.83;6.50;;;;;;;;;;5090498;28;20039;-73
2021/08/23 02:14:12;;;;;;;22.88;5.95;;;;;;;;;;5087897;28;20371;-72
2021/08/23 02:16:40;;;;;;;22.88;6.55;;;;;;;;;;5090569;28;20039;-74
2021/08/23 02:19:07;;;;;;;21.77;6.93;;;;;;;;;;5090199;28;20030;-75
2021/08/23 02:21:44;;;;;;;23.23;6.72;;;;;;;;;;5072504;28;20016;-76
2021/08/23 02:24:10;;;;;;;18.98;6.28;;;;;;;;;;5087318;28;20024;-76
2021/08/23 02:26:36;;;;;;;13.43;4.93;;;;;;;;;;5072211;28;20024;-76
2021/08/23 02:29:02;;;;;;;18.02;5.68;;;;;;;;;;5089983;28;20077;-75
2021/08/23 02:31:28;;;;;;;22.20;7.30;;;;;;;;;;5092911;28;20020;-75
2021/08/23 02:33:54;;;;;;;20.58;6.65;;;;;;;;;;5096222;28;20493;-75
2021/08/23 02:36:20;;;;;;;21.13;7.22;;;;;;;;;;5114469;28;20108;-77
2021/08/23 02:38:49;;;;;;;23.45;6.05;;;;;;;;;;5095168;28;20039;-76
2021/08/23 02:41:15;;;;;;;22.80;6.28;;;;;;;;;;5112947;28;20040;-75
2021/08/23 02:43:41;;;;;;;25.77;6.50;;;;;;;;;;5111245;28;20024;-75
2021/08/23 02:46:07;;;;;;;16.33;5.53;;;;;;;;;;5114151;28;20497;-75
2021/08/23 02:48:33;;;;;;;15.20;5.35;;;;;;;;;;5114096;28;20095;-77
2021/08/23 02:50:59;;;;;;;18.17;5.40;;;;;;;;;;5114231;28;20023;-78
2021/08/23 02:53:25;;;;;;;21.60;5.20;;;;;;;;;;5111437;28;20023;-73
2021/08/23 02:55:51;;;;;;;15.52;5.97;;;;;;;;;;5093786;28;20497;-75
2021/08/23 02:58:17;;;;;;;20.00;5.63;;;;;;;;;;5092347;28;20474;-76
2021/08/23 03:00:43;;;;;;;14.45;5.70;;;;;;;;;;5092337;28;20061;-75
2021/08/23 03:03:09;;;;;;;24.52;5.95;;;;;;;;;;5090416;28;20067;-73
2021/08/23 03:05:35;;;;;;;17.25;6.03;;;;;;;;;;5091925;28;20028;-75
2021/08/23 03:08:01;;;;;;;20.08;5.80;;;;;;;;;;5093179;28;20024;-74
2021/08/23 03:10:27;;;;;;;20.20;6.03;;;;;;;;;;5093209;28;20016;-75
2021/08/23 03:12:53;;;;;;;26.20;6.80;;;;;;;;;;5090535;28;20024;-75
2021/08/23 03:15:21;;;;;;;20.63;6.47;;;;;;;;;;5093220;28;20117;-74
2021/08/23 03:17:47;;;;;;;21.63;6.30;;;;;;;;;;5091676;28;20024;-76
2021/08/23 03:20:13;;;;;;;23.70;6.47;;;;;;;;;;5092110;28;20035;-74
2021/08/23 03:22:39;;;;;;;20.42;6.90;;;;;;;;;;5090345;28;20103;-76
2021/08/23 03:25:05;;;;;;;19.98;5.32;;;;;;;;;;5092899;28;20024;-74
2021/08/23 03:27:31;;;;;;;15.45;6.43;;;;;;;;;;5092774;28;20024;-73
2021/08/23 03:29:57;;;;;;;27.60;6.28;;;;;;;;;;5093150;28;20024;-75
2021/08/23 03:32:23;;;;;;;21.65;5.95;;;;;;;;;;5090550;28;20278;-70
2021/08/23 03:34:49;;;;;;;18.02;5.22;;;;;;;;;;5105082;28;20035;-75
2021/08/23 03:37:16;;;;;;;12.88;4.85;;;;;;;;;;5113141;28;20044;-71
2021/08/23 03:39:42;;;;;;;20.08;4.93;;;;;;;;;;5113185;28;20031;-73
2021/08/23 03:42:08;;;;;;;16.75;6.18;;;;;;;;;;5111351;28;20031;-73
2021/08/23 03:44:34;;;;;;;20.17;5.72;;;;;;;;;;5092451;28;20024;-74
2021/08/23 03:47:00;;;;;;;16.50;5.30;;;;;;;;;;5113217;28;20107;-74
2021/08/23 03:49:26;;;;;;;20.20;6.03;;;;;;;;;;5112588;28;20072;-73
2021/08/23 03:51:52;;;;;;;16.25;5.10;;;;;;;;;;5112914;28;20030;-75
2021/08/23 03:54:18;;;;;;;17.23;5.15;;;;;;;;;;5102552;28;20032;-78
2021/08/23 03:56:44;;;;;;;13.88;4.68;;;;;;;;;;5092555;28;20012;-74
2021/08/23 03:59:10;;;;;;;17.83;5.35;;;;;;;;;;5092106;28;20564;-71
2021/08/23 04:01:36;;;;;;;14.75;4.95;;;;;;;;;;5092677;28;20058;-79
2021/08/23 04:04:02;;;;;;;13.75;5.85;;;;;;;;;;5089427;28;20028;-71
2021/08/23 04:06:28;;;;;;;16.67;6.00;;;;;;;;;;5092260;28;20051;-75
2021/08/23 04:08:54;;;;;;;15.13;5.47;;;;;;;;;;5090595;28;20020;-72
2021/08/23 04:11:20;;;;;;;17.27;6.57;;;;;;;;;;5092104;28;20038;-72
2021/08/23 04:13:46;;;;;;;20.77;7.57;;;;;;;;;;5089215;28;20561;-72
2021/08/23 04:16:13;;;;;;;20.27;7.78;;;;;;;;;;5092004;28;20085;-72
2021/08/23 04:18:40;;;;;;;16.17;8.50;;;;;;;;;;5090564;28;20063;-72
2021/08/23 04:21:06;;;;;;;17.35;8.05;;;;;;;;;;5091836;28;20024;-72
2021/08/23 04:23:32;;;;;;;20.73;6.13;;;;;;;;;;5089315;28;20028;-72
2021/08/23 04:25:58;;;;;;;16.13;5.22;;;;;;;;;;5091588;28;20049;-73
2021/08/23 04:28:24;;;;;;;16.08;5.30;;;;;;;;;;5073501;28;20020;-73
2021/08/23 04:30:50;;;;;;;14.52;5.63;;;;;;;;;;5092021;28;20028;-70
2021/08/23 04:33:16;;;;;;;12.90;5.07;;;;;;;;;;5070573;28;20023;-75
2021/08/23 04:35:43;;;;;;;14.57;4.70;;;;;;;;;;5091791;28;20028;-72
2021/08/23 04:38:09;;;;;;;20.52;4.88;;;;;;;;;;5091452;28;20040;-72
2021/08/23 04:40:35;;;;;;;13.13;4.25;;;;;;;;;;5093940;28;20020;-73
2021/08/23 04:43:01;;;;;;;13.80;4.82;;;;;;;;;;5090993;28;20032;-72
2021/08/23 04:45:27;;;;;;;16.80;4.50;;;;;;;;;;5111749;28;20045;-75
2021/08/23 04:47:53;;;;;;;16.92;5.07;;;;;;;;;;5111855;28;20031;-71
2021/08/23 04:50:19;;;;;;;17.42;4.38;;;;;;;;;;5111712;28;20076;-71
2021/08/23 04:52:46;;;;;;;13.30;4.85;;;;;;;;;;5108798;28;20027;-72
2021/08/23 04:55:12;;;;;;;13.77;4.65;;;;;;;;;;5089661;28;20028;-70
2021/08/23 04:57:39;;;;;;;12.98;4.45;;;;;;;;;;5091240;28;20074;-76
2021/08/23 05:00:07;;;;;;;16.83;4.60;;;;;;;;;;5091307;28;20663;-73
2021/08/23 05:02:34;;;;;;;17.10;4.72;;;;;;;;;;5088492;28;20189;-73
2021/08/23 05:05:00;;;;;;;18.13;4.72;;;;;;;;;;5091417;28;20046;-73
2021/08/23 05:07:26;;;;;;;14.35;5.55;;;;;;;;;;5091549;28;20024;-72
2021/08/23 05:09:52;;;;;;;17.20;4.40;;;;;;;;;;5090858;28;20480;-72
2021/08/23 05:12:18;;;;;;;19.70;5.22;;;;;;;;;;5089317;28;20100;-72
2021/08/23 05:14:44;;;;;;;18.95;5.15;;;;;;;;;;5071791;28;20056;-74
2021/08/23 05:17:10;;;;;;;19.20;5.32;;;;;;;;;;5091226;28;20178;-72
2021/08/23 05:19:36;;;;;;;11.30;4.40;;;;;;;;;;5090785;28;20197;-69
2021/08/23 05:22:02;;;;;;;17.75;4.43;;;;;;;;;;5073087;28;20028;-70
2021/08/23 05:24:28;;;;;;;18.05;4.85;;;;;;;;;;5069993;28;20020;-73
2021/08/23 05:26:54;;;;;;;15.13;4.45;;;;;;;;;;5091281;28;20027;-73
2021/08/23 05:29:20;;;;;;;12.02;4.70;;;;;;;;;;5090774;28;20069;-72
2021/08/23 05:31:46;;;;;;;9.50;3.60;;;;;;;;;;5091098;28;20097;-72
2021/08/23 05:34:12;;;;;;;12.63;3.78;;;;;;;;;;5095554;28;20030;-73
2021/08/23 05:36:38;;;;;;;20.90;5.25;;;;;;;;;;5111206;28;20044;-72
2021/08/23 05:39:04;;;;;;;16.40;4.35;;;;;;;;;;5111147;28;20023;-73
2021/08/23 05:41:32;;;;;;;16.23;4.25;;;;;;;;;;5092300;28;20130;-73
2021/08/23 05:43:58;;;;;;;18.48;4.20;;;;;;;;;;5108234;28;20477;-72
2021/08/23 05:46:25;;;;;;;18.42;3.92;;;;;;;;;;5111203;28;20034;-71
2021/08/23 05:48:51;;;;;;;12.05;4.45;;;;;;;;;;5111456;28;20035;-73
2021/08/23 05:51:17;;;;;;;15.02;3.92;;;;;;;;;;5092737;28;20022;-75
2021/08/23 05:53:44;;;;;;;12.05;3.72;;;;;;;;;;5087897;28;20028;-71
2021/08/23 05:56:10;;;;;;;15.60;4.20;;;;;;;;;;5090618;28;20482;-72
2021/08/23 05:58:36;;;;;;;10.65;3.88;;;;;;;;;;5090660;28;20027;-73
2021/08/23 06:01:05;;;;;;;15.57;4.78;;;;;;;;;;5090842;28;20030;-72
2021/08/23 06:03:31;;;;;;;16.33;4.85;;;;;;;;;;5087636;28;20052;-71
2021/08/23 06:05:57;;;;;;;13.77;4.28;;;;;;;;;;5092380;28;20512;-72
2021/08/23 06:08:23;;;;;;;13.88;4.28;;;;;;;;;;5094323;28;20020;-76
2021/08/23 06:10:49;;;;;;;12.45;4.13;;;;;;;;;;5094863;28;20048;-72
2021/08/23 06:13:15;;;;;;;13.88;4.00;;;;;;;;;;5091590;28;20047;-72
2021/08/23 06:15:41;;;;;;;19.50;4.78;;;;;;;;;;5092589;28;20387;-73
2021/08/23 06:18:07;;;;;;;12.15;4.30;;;;;;;;;;5094230;28;20047;-69
2021/08/23 06:20:33;;;;;;;10.25;4.22;;;;;;;;;;5094267;28;20051;-70
2021/08/23 06:22:59;;;;;;;14.30;4.35;;;;;;;;;;5091466;28;20057;-74
2021/08/23 06:25:25;;;;;;;13.13;3.78;;;;;;;;;;5094077;28;20031;-74
2021/08/23 06:27:51;;;;;;;17.83;4.20;;;;;;;;;;5093999;28;20016;-72
2021/08/23 06:30:18;;;;;;;7.63;3.17;;;;;;;;;;5092152;28;20081;-72
2021/08/23 06:32:44;;;;;;;12.00;3.50;;;;;;;;;;5091279;28;20208;-72
2021/08/23 06:35:10;;;;;;;13.68;4.20;;;;;;;;;;5096003;28;20035;-72
2021/08/23 06:37:36;;;;;;;16.42;5.82;;;;;;;;;;5114209;28;20047;-71
2021/08/23 06:40:07;;;;;;;20.77;4.68;;;;;;;;;;5095622;28;20510;-72
2021/08/23 06:42:33;;;;;;;12.53;3.80;;;;;;;;;;5093040;28;20023;-73
2021/08/23 06:44:59;;;;;;;11.40;3.95;;;;;;;;;;5114147;28;20110;-74
2021/08/23 06:47:25;;;;;;;10.13;3.70;;;;;;;;;;5114260;28;20112;-72
2021/08/23 06:49:51;;;;;;;10.25;3.85;;;;;;;;;;5113881;28;20015;-72
2021/08/23 06:52:17;;;;;;;14.25;4.72;;;;;;;;;;5112247;28;20023;-72
2021/08/23 06:54:43;;;;;;;16.25;4.40;;;;;;;;;;5102655;28;20012;-77
2021/08/23 06:57:09;;;;;;;13.52;4.10;;;;;;;;;;5093666;28;20031;-73
2021/08/23 06:59:35;;;;;;;15.20;4.35;;;;;;;;;;5093554;28;20020;-74
2021/08/23 07:02:02;;;;;;;13.27;3.67;;;;;;;;;;5093773;28;20024;-72
2021/08/23 07:04:28;;;;;;;12.80;3.90;;;;;;;;;;5090524;28;20115;-72
2021/08/23 07:06:54;;;;;;;10.07;4.28;;;;;;;;;;5093617;28;20047;-72
2021/08/23 07:09:20;;;;;;;17.83;4.50;;;;;;;;;;5091694;28;20019;-72
2021/08/23 07:11:46;;;;;;;12.45;4.07;;;;;;;;;;5093407;28;20035;-72
2021/08/23 07:14:12;;;;;;;15.95;5.03;;;;;;;;;;5090324;28;20505;-72
2021/08/23 07:16:38;;;;;;;14.23;4.20;;;;;;;;;;5092282;28;20093;-74
2021/08/23 07:19:04;;;;;;;18.20;4.60;;;;;;;;;;5092928;28;20028;-72
2021/08/23 07:21:30;;;;;;;10.73;3.40;;;;;;;;;;5093155;28;20028;-72
2021/08/23 07:23:56;;;;;;;15.13;4.03;;;;;;;;;;5090264;28;20273;-72
2021/08/23 07:26:22;;;;;;;14.93;4.80;;;;;;;;;;5092752;28;20632;-72
2021/08/23 07:28:48;;;;;;;15.65;3.85;;;;;;;;;;5074775;28;20020;-72
2021/08/23 07:31:15;;;;;;;17.00;4.40;;;;;;;;;;5093076;28;20012;-72
2021/08/23 07:33:41;;;;;;;10.90;3.63;;;;;;;;;;5093019;28;20030;-74
2021/08/23 07:36:07;;;;;;;15.25;4.18;;;;;;;;;;5113127;28;20063;-73
2021/08/23 07:38:33;;;;;;;12.02;4.10;;;;;;;;;;5113490;28;20019;-73
2021/08/23 07:41:03;;;;;;;11.57;4.30;;;;;;;;;;5113072;28;20049;-73
2021/08/23 07:43:29;;;;;;;15.63;4.35;;;;;;;;;;5110420;28;20042;-73
2021/08/23 07:45:55;;;;;;;11.13;4.15;;;;;;;;;;5094675;28;20131;-73
2021/08/23 07:48:21;;;;;;;15.10;4.20;;;;;;;;;;5094459;28;20046;-72
2021/08/23 07:50:47;;;;;;;16.55;4.20;;;;;;;;;;5094593;28;20042;-71
2021/08/23 07:53:13;;;;;;;14.10;4.13;;;;;;;;;;5110169;28;20031;-72
2021/08/23 07:55:39;;;;;;;15.63;4.57;;;;;;;;;;5090985;28;20031;-72
2021/08/23 07:58:05;;;;;;;13.52;4.32;;;;;;;;;;5074018;28;20031;-71
2021/08/23 08:00:31;;;;;;;16.08;4.35;;;;;;;;;;5092711;28;20059;-70
2021/08/23 08:02:57;;;;;;;14.52;4.40;;;;;;;;;;5089558;28;20020;-71
2021/08/23 08:05:23;;;;;;;9.98;4.05;;;;;;;;;;5092149;28;20035;-74
2021/08/23 08:07:49;;;;;;;18.80;4.05;;;;;;;;;;5074197;28;20478;-73
2021/08/23 08:10:16;;;;;;;15.35;4.40;;;;;;;;;;5092013;28;20020;-70
2021/08/23 08:12:44;;;;;;;16.92;3.80;;;;;;;;;;5089488;28;20103;-72
2021/08/23 08:15:10;;;;;;;15.32;4.40;;;;;;;;;;5073874;28;20039;-72
2021/08/23 08:17:36;;;;;;;14.07;3.33;;;;;;;;;;5092275;28;20055;-72
2021/08/23 08:20:03;;;;;;;12.85;4.10;;;;;;;;;;5073751;28;20107;-75
2021/08/23 08:22:29;;;;;;;15.35;4.00;;;;;;;;;;5089109;28;20024;-73
2021/08/23 08:24:55;;;;;;;15.27;4.03;;;;;;;;;;5091924;28;20084;-71
2021/08/23 08:27:21;;;;;;;18.58;4.50;;;;;;;;;;5073522;28;20020;-74
2021/08/23 08:29:47;;;;;;;17.15;4.60;;;;;;;;;;5091302;28;20028;-72
2021/08/23 08:32:13;;;;;;;11.98;5.18;;;;;;;;;;5090512;28;20031;-73
2021/08/23 08:34:39;;;;;;;19.38;4.53;;;;;;;;;;5101753;28;20023;-72
2021/08/23 08:37:05;;;;;;;17.67;5.00;;;;;;;;;;5109930;28;20987;-74
2021/08/23 08:39:32;;;;;;;14.70;5.78;;;;;;;;;;5111663;28;20027;-72
2021/08/23 08:41:58;;;;;;;20.42;4.68;;;;;;;;;;5112354;28;20093;-73
2021/08/23 08:44:25;;;;;;;15.15;4.05;;;;;;;;;;5109210;28;20031;-71
2021/08/23 08:46:51;;;;;;;14.90;5.05;;;;;;;;;;5112023;28;20024;-73
2021/08/23 08:49:18;;;;;;;13.48;4.45;;;;;;;;;;5111470;28;20016;-72
2021/08/23 08:51:46;;;;;;;16.65;4.95;;;;;;;;;;5093756;28;20015;-72
2021/08/23 08:54:12;;;;;;;13.38;4.53;;;;;;;;;;5102643;28;20024;-72
2021/08/23 08:56:38;;;;;;;20.38;5.72;;;;;;;;;;5073386;28;20035;-73
2021/08/23 08:59:05;;;;;;;20.90;6.80;;;;;;;;;;5091095;28;20031;-72
2021/08/23 09:01:31;;;;;;;12.60;4.82;;;;;;;;;;5091547;28;20020;-74
2021/08/23 09:04:04;;;;;;;15.10;4.55;;;;;;;;;;5088773;28;20035;-73
2021/08/23 09:06:38;;;;;;;16.92;4.43;;;;;;;;;;5091145;28;20509;-77
2021/08/23 09:09:09;;;;;;;15.90;4.75;;;;;;;;;;5091210;28;20027;-71
2021/08/23 09:11:35;;;;;;;15.30;4.57;;;;;;;;;;5091425;28;20020;-70
2021/08/23 09:14:03;;;;;;;13.95;4.82;;;;;;;;;;5069677;28;20043;-71
2021/08/23 09:16:30;;;;;;;15.38;4.72;;;;;;;;;;5091258;28;20028;-73
2021/08/23 09:18:57;;;;;;;15.88;4.40;;;;;;;;;;5091028;28;20058;-72
2021/08/23 09:21:34;;;;;;;12.30;4.43;;;;;;;;;;5072526;28;20040;-70
2021/08/23 09:24:00;;;;;;;16.73;5.30;;;;;;;;;;5088244;28;20024;-72
2021/08/23 09:26:33;;;;;;;11.63;3.70;;;;;;;;;;5090922;28;20595;-73
2021/08/23 09:29:00;;;;;;;14.77;4.82;;;;;;;;;;5091332;28;20111;-72
2021/08/23 09:31:28;;;;;;;12.40;4.05;;;;;;;;;;5090984;28;20366;-72
2021/08/23 09:33:57;;;;;;;16.50;4.65;;;;;;;;;;5093114;28;20012;-72
2021/08/23 09:36:23;;;;;;;13.60;4.45;;;;;;;;;;5111131;28;20066;-73
2021/08/23 09:39:08;;;;;;;14.27;4.43;;;;;;;;;;5111069;28;20049;-74
2021/08/23 09:41:40;;;;;;;14.13;4.78;;;;;;;;;;5114231;28;20096;-73
2021/08/23 09:44:07;;;;;;;12.07;4.18;;;;;;;;;;5112400;28;20046;-72
2021/08/23 09:46:34;;;;;;;21.48;4.78;;;;;;;;;;5097235;28;20528;-70
2021/08/23 09:49:07;;;;;;;14.13;4.43;;;;;;;;;;5115102;28;20020;-70
2021/08/23 09:51:39;;;;;;;16.38;4.93;;;;;;;;;;5097037;28;20489;-72
2021/08/23 09:54:10;;;;;;;20.13;4.80;;;;;;;;;;5107042;28;20026;-71
2021/08/23 09:56:44;;;;;;;15.18;4.53;;;;;;;;;;5095190;28;20091;-72
2021/08/23 09:59:15;;;;;;;13.30;4.47;;;;;;;;;;5094630;28;20028;-72
2021/08/23 10:01:41;;;;;;;13.15;3.45;;;;;;;;;;5094985;28;20055;-72
2021/08/23 10:04:10;;;;;;;16.98;3.60;;;;;;;;;;5090472;28;20077;-71
2021/08/23 10:06:37;;;;;;;12.82;4.00;;;;;;;;;;5094618;28;20028;-72
2021/08/23 10:09:03;;;;;;;13.90;3.65;;;;;;;;;;5094223;28;20026;-71
2021/08/23 10:11:31;;;;;;;13.15;4.40;;;;;;;;;;5094390;28;20566;-71
2021/08/23 10:13:58;;;;;;;14.82;3.85;;;;;;;;;;5091629;28;20024;-72
2021/08/23 10:16:25;;;;;;;19.10;4.05;;;;;;;;;;5094451;28;20020;-69
2021/08/23 10:18:51;;;;;;;10.20;3.95;;;;;;;;;;5092991;28;20024;-69
2021/08/23 10:21:17;;;;;;;12.80;4.13;;;;;;;;;;5092521;28;20024;-71
2021/08/23 10:23:44;;;;;;;15.65;3.88;;;;;;;;;;5091459;28;20020;-71
2021/08/23 10:26:10;;;;;;;13.15;3.97;;;;;;;;;;5092610;28;20039;-70
2021/08/23 10:28:37;;;;;;;14.13;3.95;;;;;;;;;;5094103;28;20023;-70
2021/08/23 10:31:10;;;;;;;13.95;3.55;;;;;;;;;;5094102;28;20028;-72
2021/08/23 10:33:37;;;;;;;11.50;4.07;;;;;;;;;;5093863;28;20159;-73
2021/08/23 10:36:06;;;;;;;12.18;4.30;;;;;;;;;;5095240;28;20036;-73
2021/08/23 10:38:33;;;;;;;13.18;4.40;;;;;;;;;;5112956;28;20038;-72
2021/08/23 10:41:07;;;;;;;16.02;4.45;;;;;;;;;;5094698;28;20027;-70
2021/08/23 10:43:42;;;;;;;13.23;4.18;;;;;;;;;;5110257;28;20024;-73
2021/08/23 10:46:19;;;;;;;15.45;4.32;;;;;;;;;;5113280;28;20480;-70
2021/08/23 10:48:48;;;;;;;13.00;4.13;;;;;;;;;;5113071;28;20034;-73
2021/08/23 10:51:25;;;;;;;14.57;4.55;;;;;;;;;;5112457;28;20023;-74
2021/08/23 10:53:51;;;;;;;12.30;3.67;;;;;;;;;;5106867;28;20017;-72
2021/08/23 10:56:18;;;;;;;14.93;4.40;;;;;;;;;;5091108;28;20027;-71
2021/08/23 10:58:45;;;;;;;14.70;4.25;;;;;;;;;;5092293;28;20112;-70
2021/08/23 11:01:18;;;;;;;14.23;4.03;;;;;;;;;;5092388;28;20016;-70
2021/08/23 11:03:44;;;;;;;15.52;4.03;;;;;;;;;;5089515;28;20039;-73
2021/08/23 11:06:10;;;;;;;16.05;4.53;;;;;;;;;;5092207;28;20108;-70
2021/08/23 11:08:37;;;;;;;9.57;3.55;;;;;;;;;;5092225;28;20074;-72
2021/08/23 11:11:14;;;;;;;13.40;5.05;;;;;;;;;;5092123;28;20390;-71
2021/08/23 11:13:41;;;;;;;14.50;4.13;;;;;;;;;;5089394;28;20455;-71
2021/08/23 11:16:07;;;;;;;13.88;4.18;;;;;;;;;;5092475;28;20024;-71
2021/08/23 11:18:40;;;;;;;23.83;4.38;;;;;;;;;;5092078;28;20031;-71
2021/08/23 11:21:06;;;;;;;16.45;4.63;;;;;;;;;;5091993;28;20496;-71
2021/08/23 11:23:33;;;;;;;17.05;4.57;;;;;;;;;;5089256;28;20024;-71
2021/08/23 11:26:02;;;;;;;11.23;3.90;;;;;;;;;;5091757;28;20162;-72
2021/08/23 11:28:31;;;;;;;15.48;4.88;;;;;;;;;;5091726;28;20028;-74
2021/08/23 11:30:59;;;;;;;19.40;4.97;;;;;;;;;;5091993;28;20020;-71
2021/08/23 11:33:25;;;;;;;16.08;4.80;;;;;;;;;;5089765;28;20028;-71
2021/08/23 11:35:51;;;;;;;17.85;4.90;;;;;;;;;;5112256;28;20024;-73
2021/08/23 11:38:17;;;;;;;16.75;5.32;;;;;;;;;;5074034;28;1109193;-71
2021/08/23 11:40:45;;;;;;;20.25;4.97;;;;;;;;;;5112873;28;20023;-71
2021/08/23 11:43:11;;;;;;;11.82;4.28;;;;;;;;;;5110176;28;20028;-72
2021/08/23 11:45:40;;;;;;;15.43;5.10;;;;;;;;;;5113141;28;20065;-69
2021/08/23 11:48:06;;;;;;;18.55;4.90;;;;;;;;;;5094302;28;20084;-71
2021/08/23 11:50:32;;;;;;;15.27;4.38;;;;;;;;;;5112534;28;20023;-71
2021/08/23 11:53:03;;;;;;;15.88;5.43;;;;;;;;;;5091393;28;20031;-71
2021/08/23 11:55:34;;;;;;;18.17;5.18;;;;;;;;;;5095769;28;20397;-71
2021/08/23 11:58:04;;;;;;;19.50;5.40;;;;;;;;;;5091259;28;20050;-71
2021/08/23 12:00:30;;;;;;;17.45;4.82;;;;;;;;;;5092405;28;20101;-70
2021/08/23 12:03:07;;;;;;;19.48;4.82;;;;;;;;;;5089052;28;20032;-69
2021/08/23 12:05:37;;;;;;;40.08;5.75;;;;;;;;;;5092307;28;20024;-71
2021/08/23 12:08:03;;;;;;;18.42;5.15;;;;;;;;;;5092152;28;20016;-68
2021/08/23 12:10:31;;;;;;;24.42;5.68;;;;;;;;;;5091895;28;20035;-69
2021/08/23 12:13:11;;;;;;;14.07;5.30;;;;;;;;;;5089437;28;20027;-72
2021/08/23 12:15:38;;;;;;;13.32;4.07;;;;;;;;;;5091999;28;20028;-69
2021/08/23 12:18:11;;;;;;;15.73;5.03;;;;;;;;;;5092069;28;20031;-70
2021/08/23 12:20:37;;;;;;;16.50;5.47;;;;;;;;;;5091304;28;20132;-73
2021/08/23 12:23:04;;;;;;;12.55;5.75;;;;;;;;;;5088894;28;20077;-70
2021/08/23 12:25:30;;;;;;;19.25;5.05;;;;;;;;;;5091582;28;20036;-69
2021/08/23 12:27:56;;;;;;;19.65;5.28;;;;;;;;;;5092270;28;20016;-69
2021/08/23 12:30:40;;;;;;;14.57;5.70;;;;;;;;;;5073411;28;20047;-69
2021/08/23 12:33:15;;;;;;;12.52;4.03;;;;;;;;;;5089073;28;20073;-69
2021/08/23 12:35:41;;;;;;;16.85;4.07;;;;;;;;;;5093331;28;20023;-69
2021/08/23 12:38:07;;;;;;;15.82;4.47;;;;;;;;;;5111552;28;20077;-71
2021/08/23 12:40:33;;;;;;;15.48;4.07;;;;;;;;;;5111378;28;20185;-69
2021/08/23 12:42:59;;;;;;;16.48;4.72;;;;;;;;;;5109138;28;20055;-68
2021/08/23 12:45:26;;;;;;;12.40;3.90;;;;;;;;;;5111895;28;20020;-71
2021/08/23 12:47:52;;;;;;;17.80;5.85;;;;;;;;;;5112053;28;20496;-69
2021/08/23 12:50:19;;;;;;;12.27;5.20;;;;;;;;;;5111633;28;20043;-72
2021/08/23 12:52:45;;;;;;;18.98;4.40;;;;;;;;;;5090872;28;20315;-70
2021/08/23 12:55:11;;;;;;;22.27;5.38;;;;;;;;;;5089615;28;20555;-70
2021/08/23 12:57:37;;;;;;;12.75;4.05;;;;;;;;;;5091457;28;20028;-68
2021/08/23 13:00:07;;;;;;;14.32;4.30;;;;;;;;;;5091172;28;20043;-68
2021/08/23 13:02:34;;;;;;;17.05;4.88;;;;;;;;;;5088619;28;20020;-69
2021/08/23 13:05:00;;;;;;;11.48;4.15;;;;;;;;;;5091233;28;20028;-69
2021/08/23 13:07:26;;;;;;;20.35;5.78;;;;;;;;;;5091310;28;20543;-69
2021/08/23 13:09:52;;;;;;;15.18;4.93;;;;;;;;;;5090980;28;20030;-74
2021/08/23 13:12:18;;;;;;;22.50;4.70;;;;;;;;;;5071274;28;20022;-69
2021/08/23 13:14:44;;;;;;;17.27;4.68;;;;;;;;;;5090406;28;20020;-70
2021/08/23 13:17:10;;;;;;;15.73;4.72;;;;;;;;;;5072671;28;20028;-70
2021/08/23 13:19:37;;;;;;;16.58;4.53;;;;;;;;;;5090629;28;20027;-70
2021/08/23 13:22:04;;;;;;;15.23;4.93;;;;;;;;;;5090939;28;20489;-71
2021/08/23 13:24:30;;;;;;;17.65;4.88;;;;;;;;;;5088176;28;20016;-70
2021/08/23 13:26:56;;;;;;;16.63;4.53;;;;;;;;;;5072626;28;20107;-69
2021/08/23 13:29:22;;;;;;;12.25;3.65;;;;;;;;;;5090569;28;20012;-70
2021/08/23 13:31:48;;;;;;;20.40;5.25;;;;;;;;;;5090969;28;20024;-69
2021/08/23 13:34:14;;;;;;;16.58;4.95;;;;;;;;;;5076754;28;20031;-69
2021/08/23 13:36:40;;;;;;;17.23;5.10;;;;;;;;;;5092897;28;20016;-69
2021/08/23 13:39:06;;;;;;;18.50;4.32;;;;;;;;;;5110560;28;20051;-70
2021/08/23 13:41:32;;;;;;;14.57;4.57;;;;;;;;;;5092771;28;20031;-71
2021/08/23 13:43:58;;;;;;;12.57;4.40;;;;;;;;;;5108330;28;20089;-69
2021/08/23 13:46:24;;;;;;;17.38;4.90;;;;;;;;;;5111051;28;20020;-70
2021/08/23 13:48:50;;;;;;;17.00;5.25;;;;;;;;;;5110975;28;20077;-70
2021/08/23 13:51:17;;;;;;;17.15;4.30;;;;;;;;;;5111124;28;20019;-70
2021/08/23 13:53:43;;;;;;;17.58;4.85;;;;;;;;;;5105922;28;20027;-70
2021/08/23 13:56:09;;;;;;;12.35;4.25;;;;;;;;;;5072279;28;20040;-70
2021/08/23 13:58:35;;;;;;;17.17;5.03;;;;;;;;;;5090834;28;20032;-70
2021/08/23 14:01:01;;;;;;;13.23;4.05;;;;;;;;;;5090627;28;20028;-69
2021/08/23 14:03:27;;;;;;;17.20;5.07;;;;;;;;;;5069603;28;20054;-68
2021/08/23 14:05:53;;;;;;;13.07;4.35;;;;;;;;;;5090533;28;20024;-69
2021/08/23 14:08:19;;;;;;;20.92;4.65;;;;;;;;;;5090813;28;20090;-68
2021/08/23 14:10:46;;;;;;;19.30;4.63;;;;;;;;;;5071690;28;20032;-69
2021/08/23 14:13:12;;;;;;;15.77;3.83;;;;;;;;;;5087795;28;20020;-68
2021/08/23 14:15:38;;;;;;;14.05;4.40;;;;;;;;;;5090580;28;20029;-68
2021/08/23 14:18:04;;;;;;;14.25;4.40;;;;;;;;;;5090839;28;20035;-69
2021/08/23 14:20:30;;;;;;;18.90;4.68;;;;;;;;;;5090138;28;20036;-69
2021/08/23 14:22:56;;;;;;;22.33;4.78;;;;;;;;;;5087818;28;20032;-69
2021/08/23 14:25:22;;;;;;;21.10;5.10;;;;;;;;;;5072243;28;20216;-69
2021/08/23 14:27:48;;;;;;;20.00;4.25;;;;;;;;;;5093546;28;20050;-68
2021/08/23 14:30:14;;;;;;;26.38;4.88;;;;;;;;;;5093594;28;20020;-68